Time;durP1;ratioP1;P1;durP2;ratioP2;P2;SDS_P1;SDS_P2;PMS_P1;PMS_P2;Temp;Humidity;BMP_temperature;BMP_pressure;BME280_temperature;BME280_humidity;BME280_pressure;Samples;Min_cycle;Max_cycle;Signal;HPM_P1;HPM_P2
2022/08/27 00:01:57;;;;;;;20.05;13.10;;;;;;;23.63;100.00;96063.59;5025484;28;20081;-52
2022/08/27 00:04:26;;;;;;;20.73;12.80;;;;;;;23.91;100.00;96057.47;5029011;28;20080;-52
2022/08/27 00:06:54;;;;;;;23.88;13.10;;;;;;;24.01;100.00;96053.34;5029782;28;20089;-54
2022/08/27 00:09:23;;;;;;;19.60;13.20;;;;;;;23.62;100.00;96063.84;5024927;28;20081;-47
2022/08/27 00:11:56;;;;;;;22.25;14.07;;;;;;;23.60;100.00;96068.63;5026881;28;20084;-51
2022/08/27 00:14:26;;;;;;;20.05;14.05;;;;;;;23.43;100.00;96069.38;5027964;28;20073;-51
2022/08/27 00:16:55;;;;;;;21.30;14.47;;;;;;;23.46;100.00;96071.56;5021456;28;20072;-52
2022/08/27 00:19:23;;;;;;;24.02;14.30;;;;;;;23.35;100.00;96075.09;5023160;28;20495;-50
2022/08/27 00:21:52;;;;;;;21.52;14.48;;;;;;;23.53;100.00;96070.63;5026538;28;20068;-51
2022/08/27 00:24:20;;;;;;;22.35;14.30;;;;;;;23.72;100.00;96061.41;5025091;28;20088;-50
2022/08/27 00:26:52;;;;;;;23.90;15.05;;;;;;;23.66;100.00;96059.63;5019400;28;20092;-49
2022/08/27 00:29:22;;;;;;;21.75;14.15;;;;;;;23.65;100.00;96058.81;5028755;28;20091;-49
2022/08/27 00:31:50;;;;;;;21.35;14.02;;;;;;;23.20;100.00;96062.13;5025413;28;20068;-51
2022/08/27 00:34:22;;;;;;;21.10;13.75;;;;;;;23.46;100.00;96060.81;5028782;28;20081;-53
2022/08/27 00:36:52;;;;;;;18.42;14.27;;;;;;;23.70;100.00;96052.72;5023097;28;20081;-48
2022/08/27 00:39:20;;;;;;;18.47;13.63;;;;;;;23.74;100.00;96050.38;5024832;28;20054;-48
2022/08/27 00:41:49;;;;;;;24.13;14.07;;;;;;;23.63;100.00;96041.25;5024103;28;20088;-50
2022/08/27 00:44:18;;;;;;;19.10;13.73;;;;;;;23.82;100.00;96040.06;5025392;28;20084;-50
2022/08/27 00:46:50;;;;;;;21.83;13.65;;;;;;;23.24;100.00;96045.53;5029007;28;20088;-51
2022/08/27 00:49:20;;;;;;;23.33;14.15;;;;;;;23.52;100.00;96055.56;5028651;28;20429;-48
2022/08/27 00:51:51;;;;;;;;;;;;;;;23.38;100.00;96058.47;5024348;28;20084;-50
2022/08/27 00:54:21;;;;;;;22.58;15.23;;;;;;;23.49;100.00;96045.25;5023759;28;20355;-50
2022/08/27 00:56:49;;;;;;;24.02;15.70;;;;;;;23.61;100.00;96044.19;5021975;28;20080;-53
2022/08/27 00:59:22;;;;;;;20.80;14.40;;;;;;;23.28;100.00;96042.13;5022624;28;20068;-48
2022/08/27 01:04:39;;;;;;;24.42;16.00;;;;;;;23.59;100.00;96027.44;5031735;28;20092;-49
2022/08/27 01:07:08;;;;;;;22.40;15.07;;;;;;;23.11;100.00;96041.19;5032889;28;20136;-50
2022/08/27 01:09:37;;;;;;;25.08;14.90;;;;;;;23.41;100.00;96054.50;5030656;28;20072;-48
2022/08/27 01:12:06;;;;;;;22.17;15.38;;;;;;;23.20;100.00;96062.13;5027374;28;20088;-49
2022/08/27 01:14:34;;;;;;;23.08;15.52;;;;;;;22.94;100.00;96068.75;5032612;28;20997;-51
2022/08/27 01:17:06;;;;;;;22.17;14.93;;;;;;;22.83;100.00;96069.53;5030457;28;20085;-49
2022/08/27 01:19:37;;;;;;;24.58;14.35;;;;;;;22.30;100.00;96072.19;5030606;28;20172;-49
2022/08/27 01:22:11;;;;;;;17.77;11.07;;;;;;;21.86;100.00;96085.75;5029608;28;20455;-47
2022/08/27 01:24:54;;;;;;;15.43;11.30;;;;;;;22.32;100.00;96072.78;5030883;28;20528;-51
2022/08/27 01:27:25;;;;;;;18.15;11.27;;;;;;;22.21;100.00;96077.06;5031405;28;20080;-51
2022/08/27 01:29:54;;;;;;;19.63;11.90;;;;;;;22.33;100.00;96077.09;5023246;28;20081;-50
2022/08/27 01:32:25;;;;;;;18.63;12.23;;;;;;;22.47;100.00;96075.88;5029884;28;20085;-53
2022/08/27 01:34:53;;;;;;;;;;;;;;;22.01;100.00;96088.84;5023687;28;20085;-51
2022/08/27 01:37:24;;;;;;;14.32;11.48;;;;;;;22.28;100.00;96081.28;5032365;28;19952;-50
2022/08/27 01:39:57;;;;;;;18.83;12.68;;;;;;;22.75;100.00;96083.31;5025505;28;20088;-47
2022/08/27 01:42:29;;;;;;;21.40;13.30;;;;;;;22.52;100.00;96079.50;5025055;28;20073;-51
2022/08/27 01:44:59;;;;;;;17.17;11.65;;;;;;;22.25;100.00;96079.06;5028197;28;20531;-51
2022/08/27 01:47:29;;;;;;;19.90;13.23;;;;;;;22.91;100.00;96081.81;5028310;28;20078;-50
2022/08/27 01:49:59;;;;;;;22.02;13.60;;;;;;;22.48;100.00;96077.53;5025364;28;20076;-47
2022/08/27 01:52:29;;;;;;;18.85;12.32;;;;;;;22.65;100.00;96072.31;5028223;28;20100;-51
2022/08/27 01:54:59;;;;;;;15.95;11.98;;;;;;;22.92;100.00;96070.03;5025116;28;20085;-51
2022/08/27 01:57:27;;;;;;;16.60;12.48;;;;;;;22.87;100.00;96076.09;5030799;28;20555;-51
2022/08/27 01:59:56;;;;;;;18.13;11.60;;;;;;;22.73;100.00;96077.34;5023555;28;20080;-50
2022/08/27 02:02:25;;;;;;;19.48;12.23;;;;;;;22.46;100.00;96074.22;5028758;28;20484;-50
2022/08/27 02:04:54;;;;;;;18.30;12.73;;;;;;;22.45;100.00;96065.34;5032014;28;20457;-51
2022/08/27 02:07:22;;;;;;;22.50;13.00;;;;;;;22.34;100.00;96065.34;5030784;28;20060;-48
2022/08/27 02:09:51;;;;;;;16.38;11.52;;;;;;;22.10;100.00;96073.25;5024010;28;20069;-49
2022/08/27 02:12:21;;;;;;;17.88;12.25;;;;;;;22.47;100.00;96071.34;5029240;28;20073;-48
2022/08/27 02:14:51;;;;;;;17.85;12.00;;;;;;;22.63;100.00;96063.66;5030526;28;20468;-49
2022/08/27 02:17:20;;;;;;;18.10;12.13;;;;;;;22.56;100.00;96076.38;5031871;28;20097;-47
2022/08/27 02:19:48;;;;;;;20.95;13.23;;;;;;;23.00;100.00;96066.22;5030129;28;20550;-47
2022/08/27 02:22:16;;;;;;;23.95;13.52;;;;;;;22.90;100.00;96069.44;5028065;28;20101;-47
2022/08/27 02:24:45;;;;;;;17.27;12.52;;;;;;;22.62;100.00;96072.78;5029812;28;20095;-54
2022/08/27 02:27:13;;;;;;;19.23;13.27;;;;;;;22.87;100.00;96070.72;5026552;28;20069;-52
2022/08/27 02:29:43;;;;;;;19.48;13.27;;;;;;;22.74;100.00;96076.28;5026402;28;20092;-54
2022/08/27 02:32:16;;;;;;;18.33;13.05;;;;;;;22.99;100.00;96062.69;5030923;28;20077;-54
2022/08/27 02:34:58;;;;;;;21.27;12.73;;;;;;;23.11;100.00;96065.38;5031118;28;20096;-50
2022/08/27 02:37:27;;;;;;;20.35;13.18;;;;;;;23.19;100.00;96065.88;5025882;28;20081;-53
2022/08/27 02:39:55;;;;;;;21.27;13.05;;;;;;;23.23;100.00;96063.53;5028838;28;20077;-48
2022/08/27 02:42:23;;;;;;;19.70;13.20;;;;;;;23.21;100.00;96057.56;5025769;28;20065;-52
2022/08/27 02:44:53;;;;;;;23.55;13.25;;;;;;;23.33;100.00;96063.78;5027954;28;20104;-50
2022/08/27 02:47:22;;;;;;;23.55;13.13;;;;;;;23.35;100.00;96072.41;5028581;28;20104;-49
2022/08/27 02:49:50;;;;;;;20.15;12.68;;;;;;;23.46;100.00;96068.06;5025904;28;20107;-56
2022/08/27 02:52:19;;;;;;;19.77;13.27;;;;;;;23.38;100.00;96071.94;5027055;28;20106;-53
2022/08/27 02:54:53;;;;;;;19.20;13.23;;;;;;;23.31;100.00;96073.94;5030854;28;20084;-54
2022/08/27 02:57:21;;;;;;;20.73;13.70;;;;;;;23.38;100.00;96079.19;5021827;28;20085;-49
2022/08/27 02:59:50;;;;;;;19.75;12.65;;;;;;;23.33;100.00;96069.16;5029479;28;20088;-55
2022/08/27 03:02:20;;;;;;;20.85;13.20;;;;;;;23.36;100.00;96076.72;5027331;28;20077;-51
2022/08/27 03:04:53;;;;;;;22.40;14.30;;;;;;;23.46;100.00;96076.94;5022822;28;20072;-49
2022/08/27 03:07:23;;;;;;;24.05;14.15;;;;;;;23.51;100.00;96081.66;5028088;28;20081;-48
2022/08/27 03:09:51;;;;;;;25.77;13.88;;;;;;;23.42;100.00;96083.06;5027180;28;20096;-52
2022/08/27 03:12:19;;;;;;;26.55;13.63;;;;;;;23.44;100.00;96076.38;5023003;28;20092;-52
2022/08/27 03:14:52;;;;;;;24.42;13.48;;;;;;;23.43;100.00;96065.84;5030621;28;20472;-56
2022/08/27 03:20:09;;;;;;;19.67;14.00;;;;;;;23.18;100.00;96068.78;5023585;28;20081;-50
2022/08/27 03:22:39;;;;;;;22.15;14.45;;;;;;;23.60;100.00;96066.75;5030228;28;20550;-54
2022/08/27 03:25:07;;;;;;;19.05;13.95;;;;;;;23.29;100.00;96065.25;5027669;28;20524;-54
2022/08/27 03:27:36;;;;;;;18.85;13.77;;;;;;;23.51;100.00;96070.06;5028468;28;20088;-47
2022/08/27 03:30:07;;;;;;;20.08;13.73;;;;;;;23.46;100.00;96073.44;5028607;28;20100;-50
2022/08/27 03:32:37;;;;;;;20.15;13.90;;;;;;;23.77;100.00;96064.19;5026893;28;20508;-48
2022/08/27 03:35:06;;;;;;;21.23;14.25;;;;;;;23.61;100.00;96065.72;5029288;28;20085;-47
2022/08/27 03:37:35;;;;;;;17.48;13.05;;;;;;;23.60;100.00;96068.63;5023634;28;20085;-49
2022/08/27 03:40:05;;;;;;;17.88;12.68;;;;;;;23.59;100.00;96069.69;5028143;28;20069;-54
2022/08/27 03:42:34;;;;;;;19.88;13.48;;;;;;;23.51;100.00;96067.38;5027559;28;20093;-53
2022/08/27 03:45:03;;;;;;;23.75;14.02;;;;;;;23.95;100.00;96073.16;5030066;28;20082;-53
2022/08/27 03:47:32;;;;;;;20.52;13.57;;;;;;;23.67;100.00;96070.19;5029200;28;20104;-49
2022/08/27 03:50:02;;;;;;;21.35;12.85;;;;;;;23.39;100.00;96065.50;5025370;28;20085;-49
2022/08/27 03:52:30;;;;;;;18.83;12.63;;;;;;;24.00;100.00;96057.94;5029124;28;20097;-47
2022/08/27 03:54:58;;;;;;;21.60;12.98;;;;;;;23.61;100.00;96059.53;5022039;28;20097;-46
2022/08/27 03:57:27;;;;;;;15.23;12.70;;;;;;;24.02;100.00;96058.53;5029085;28;20488;-52
2022/08/27 03:59:55;;;;;;;18.60;13.35;;;;;;;23.71;100.00;96056.25;5022957;28;20092;-50
2022/08/27 04:02:24;;;;;;;20.70;13.73;;;;;;;24.21;100.00;96052.94;5022540;28;20578;-52
2022/08/27 04:04:53;;;;;;;19.33;12.57;;;;;;;24.17;100.00;96058.81;5022927;28;20073;-48
2022/08/27 04:07:23;;;;;;;20.45;13.07;;;;;;;24.22;100.00;96055.38;5026583;28;20095;-47
2022/08/27 04:09:51;;;;;;;19.33;12.60;;;;;;;23.71;100.00;96051.69;5027768;28;20091;-51
2022/08/27 04:12:19;;;;;;;20.80;12.25;;;;;;;23.87;100.00;96056.31;5029030;28;20084;-54
2022/08/27 04:14:48;;;;;;;19.08;12.88;;;;;;;23.71;100.00;96049.00;5025617;28;20077;-49
2022/08/27 04:17:16;;;;;;;18.92;13.43;;;;;;;23.73;100.00;96059.53;5026202;28;20076;-50
2022/08/27 04:19:44;;;;;;;18.67;12.55;;;;;;;23.29;100.00;96056.38;5028865;28;20739;-49
2022/08/27 04:22:13;;;;;;;20.23;12.75;;;;;;;22.92;100.00;96061.97;5024986;28;20076;-48
2022/08/27 04:24:43;;;;;;;20.42;13.60;;;;;;;23.72;100.00;96063.28;5027656;28;20627;-49
2022/08/27 04:27:13;;;;;;;19.35;13.07;;;;;;;23.27;100.00;96061.19;5029066;28;20096;-54
2022/08/27 04:29:42;;;;;;;;;;;;;;;23.56;100.00;96062.09;5024550;28;20069;-53
2022/08/27 04:32:10;;;;;;;19.90;12.40;;;;;;;23.02;100.00;96066.78;5027160;28;19976;-51
2022/08/27 04:34:39;;;;;;;21.73;12.85;;;;;;;23.43;100.00;96064.00;5029049;28;20088;-46
2022/08/27 04:37:07;;;;;;;24.23;13.27;;;;;;;23.36;100.00;96071.34;5029029;28;20094;-47
2022/08/27 04:39:37;;;;;;;17.80;12.75;;;;;;;23.43;100.00;96079.31;5027593;28;20072;-50
2022/08/27 04:42:07;;;;;;;20.05;13.55;;;;;;;23.61;100.00;96063.03;5027696;28;20107;-48
2022/08/27 04:44:35;;;;;;;18.83;12.95;;;;;;;23.56;100.00;96065.59;5019314;28;20183;-52
2022/08/27 04:47:05;;;;;;;22.48;13.35;;;;;;;23.62;100.00;96069.22;5028371;28;20460;-48
2022/08/27 04:49:33;;;;;;;;;;;;;;;23.84;100.00;96067.56;5030228;28;20548;-49
2022/08/27 04:52:02;;;;;;;19.30;12.98;;;;;;;23.33;100.00;96071.84;5028685;28;19948;-47
2022/08/27 04:54:32;;;;;;;19.35;13.68;;;;;;;23.46;100.00;96071.56;5016862;28;20089;-50
2022/08/27 04:57:01;;;;;;;18.85;12.40;;;;;;;23.85;100.00;96068.41;5022776;28;20085;-48
2022/08/27 04:59:33;;;;;;;20.10;13.03;;;;;;;24.11;100.00;96069.72;5026683;28;20084;-50
2022/08/27 05:02:02;;;;;;;18.85;12.80;;;;;;;23.74;100.00;96067.34;5026040;28;20523;-53
2022/08/27 05:04:32;;;;;;;22.05;13.80;;;;;;;23.55;100.00;96077.44;5022623;28;20072;-50
2022/08/27 05:07:00;;;;;;;20.95;13.40;;;;;;;23.67;100.00;96080.09;5024795;28;20093;-48
2022/08/27 05:09:29;;;;;;;17.17;12.23;;;;;;;23.99;100.00;96077.03;5024000;28;20080;-48
2022/08/27 05:11:58;;;;;;;18.77;13.35;;;;;;;24.01;100.00;96072.22;5019416;28;20104;-52
2022/08/27 05:14:28;;;;;;;18.10;12.88;;;;;;;24.07;100.00;96076.66;5026033;28;20077;-50
2022/08/27 05:16:59;;;;;;;19.95;12.43;;;;;;;24.02;100.00;96081.91;5027576;28;20073;-49
2022/08/27 05:19:27;;;;;;;16.48;12.73;;;;;;;24.26;100.00;96075.41;5023686;28;20486;-50
2022/08/27 05:21:56;;;;;;;17.73;12.35;;;;;;;24.54;100.00;96080.00;5028058;28;20074;-49
2022/08/27 05:24:24;;;;;;;17.67;12.52;;;;;;;24.43;100.00;96078.16;5027965;28;20080;-55
2022/08/27 05:26:53;;;;;;;14.85;12.30;;;;;;;24.24;100.00;96074.84;5026385;28;20453;-47
2022/08/27 05:29:22;;;;;;;19.67;11.82;;;;;;;24.63;100.00;96078.53;5027224;28;20088;-48
2022/08/27 05:31:50;;;;;;;16.30;11.52;;;;;;;24.36;100.00;96082.84;5022066;28;20072;-49
2022/08/27 05:34:21;;;;;;;13.60;11.05;;;;;;;24.92;100.00;96081.19;5028507;28;20089;-46
2022/08/27 05:36:53;;;;;;;16.17;11.07;;;;;;;24.32;100.00;96081.72;5028499;28;20077;-46
2022/08/27 05:39:22;;;;;;;15.00;10.70;;;;;;;24.93;100.00;96077.44;5030667;28;20561;-48
2022/08/27 05:41:51;;;;;;;13.50;10.07;;;;;;;25.05;100.00;96080.03;5025798;28;20085;-47
2022/08/27 05:44:20;;;;;;;12.77;10.10;;;;;;;24.42;100.00;96070.34;5028120;28;20083;-49
2022/08/27 05:47:08;;;;;;;12.30;9.55;;;;;;;25.03;100.00;96071.38;5029171;28;20076;-49
2022/08/27 05:49:38;;;;;;;13.88;10.38;;;;;;;24.84;100.00;96077.03;5024445;28;20073;-49
2022/08/27 05:52:11;;;;;;;12.40;9.60;;;;;;;24.97;100.00;96075.06;5025424;28;20073;-52
2022/08/27 05:54:39;;;;;;;15.23;9.90;;;;;;;24.84;100.00;96077.03;5029023;28;20085;-46
2022/08/27 05:57:08;;;;;;;13.93;9.10;;;;;;;25.17;100.00;96072.72;5030526;28;20163;-47
2022/08/27 06:02:23;;;;;;;12.05;9.20;;;;;;;24.91;100.00;96081.44;5027544;28;20148;-51
2022/08/27 06:04:53;;;;;;;10.55;8.48;;;;;;;24.69;100.00;96076.75;5030400;28;20088;-51
2022/08/27 06:07:21;;;;;;;10.55;8.57;;;;;;;23.91;100.00;96076.31;5029944;28;20081;-52
2022/08/27 06:09:50;;;;;;;9.23;7.90;;;;;;;24.78;100.00;96072.59;5028878;28;20092;-50
2022/08/27 06:12:18;;;;;;;9.40;7.47;;;;;;;25.48;100.00;96071.28;5031255;28;20457;-51
2022/08/27 06:14:55;;;;;;;11.18;8.20;;;;;;;24.78;100.00;96079.88;5027543;28;20724;-50
2022/08/27 06:17:24;;;;;;;11.57;7.95;;;;;;;24.66;100.00;96082.63;5025061;28;20176;-52
2022/08/27 06:19:54;;;;;;;9.98;8.48;;;;;;;24.90;100.00;96075.22;5029736;28;20085;-48
2022/08/27 06:22:22;;;;;;;11.45;8.70;;;;;;;24.50;100.00;96086.94;5024204;28;20089;-48
2022/08/27 06:24:50;;;;;;;10.55;8.50;;;;;;;24.70;100.00;96082.97;5028542;28;20081;-49
2022/08/27 06:27:19;;;;;;;16.08;10.25;;;;;;;24.07;100.00;96085.53;5030153;28;20084;-54
2022/08/27 06:29:47;;;;;;;13.55;9.18;;;;;;;24.53;100.00;96086.44;5029918;28;20088;-52
2022/08/27 06:32:16;;;;;;;17.48;9.68;;;;;;;24.73;100.00;96086.00;5030052;28;20478;-52
2022/08/27 06:34:44;;;;;;;13.02;10.65;;;;;;;24.68;100.00;96080.53;5029786;28;20548;-55
2022/08/27 06:37:14;;;;;;;14.05;10.18;;;;;;;24.69;100.00;96081.34;5025236;28;20084;-57
2022/08/27 06:39:42;;;;;;;17.70;11.30;;;;;;;24.29;100.00;96090.28;5027373;28;20096;-50
2022/08/27 06:42:12;;;;;;;14.98;10.60;;;;;;;24.30;100.00;96083.84;5030269;28;20096;-50
2022/08/27 06:44:40;;;;;;;16.75;10.65;;;;;;;24.22;100.00;96092.28;5029228;28;20084;-54
2022/08/27 06:47:09;;;;;;;13.63;10.07;;;;;;;23.58;100.00;96092.28;5028688;28;20112;-54
2022/08/27 06:49:38;;;;;;;16.20;10.45;;;;;;;23.57;100.00;96096.88;5027268;28;20078;-54
2022/08/27 06:52:07;;;;;;;17.27;10.30;;;;;;;24.19;100.00;96090.91;5029132;28;20175;-55
2022/08/27 06:54:39;;;;;;;13.57;10.88;;;;;;;24.33;100.00;96080.66;5027668;28;20089;-51
2022/08/27 06:57:07;;;;;;;14.45;10.60;;;;;;;24.15;100.00;96087.84;5028189;28;20104;-50
2022/08/27 06:59:35;;;;;;;15.52;10.73;;;;;;;24.47;100.00;96086.63;5028306;28;20084;-52
2022/08/27 07:02:06;;;;;;;13.70;10.82;;;;;;;24.73;100.00;96088.69;5028410;28;20089;-55
2022/08/27 07:04:34;;;;;;;15.18;11.18;;;;;;;24.58;100.00;96085.72;5028104;28;20524;-52
2022/08/27 07:07:03;;;;;;;15.23;10.98;;;;;;;24.80;100.00;96088.53;5029830;28;20551;-52
2022/08/27 07:09:33;;;;;;;13.65;11.63;;;;;;;24.28;100.00;96092.16;5023672;28;20081;-50
2022/08/27 07:12:04;;;;;;;14.95;11.80;;;;;;;24.15;100.00;96092.44;5024277;28;20205;-56
2022/08/27 07:14:33;;;;;;;13.77;11.27;;;;;;;24.94;100.00;96089.03;5028922;28;20069;-48
2022/08/27 07:17:07;;;;;;;13.07;10.30;;;;;;;24.92;100.00;96086.59;5030486;28;20092;-50
2022/08/27 07:19:38;;;;;;;14.35;9.95;;;;;;;24.61;100.00;96093.34;5026081;28;20080;-49
2022/08/27 07:22:08;;;;;;;;;;;;;;;25.14;100.00;96088.59;5030860;28;20077;-49
2022/08/27 07:24:37;;;;;;;13.35;9.85;;;;;;;24.87;100.00;96100.78;5030265;28;19964;-48
2022/08/27 07:27:08;;;;;;;11.93;9.55;;;;;;;24.75;100.00;96101.94;5029363;28;20081;-51
2022/08/27 07:29:37;;;;;;;12.98;9.43;;;;;;;24.46;100.00;96101.13;5014096;28;20081;-56
2022/08/27 07:32:05;;;;;;;11.38;9.30;;;;;;;24.22;100.00;96105.75;5026448;28;20087;-56
2022/08/27 07:34:34;;;;;;;12.15;9.48;;;;;;;24.23;100.00;96110.13;5029422;28;20558;-50
2022/08/27 07:37:02;;;;;;;11.70;9.40;;;;;;;24.62;100.00;96105.75;5030104;28;20080;-48
2022/08/27 07:39:30;;;;;;;11.30;9.35;;;;;;;24.39;100.00;96104.75;5029424;28;20092;-49
2022/08/27 07:44:46;;;;;;;9.38;8.38;;;;;;;24.50;100.00;96107.66;5029580;28;20091;-51
2022/08/27 07:47:14;;;;;;;10.63;9.18;;;;;;;24.93;100.00;96109.81;5025254;28;20096;-51
2022/08/27 07:49:43;;;;;;;10.02;8.50;;;;;;;25.32;100.00;96108.03;5027865;28;20092;-51
2022/08/27 07:52:12;;;;;;;12.60;9.18;;;;;;;24.92;100.00;96110.06;5028354;28;20540;-52
2022/08/27 07:54:40;;;;;;;10.68;8.35;;;;;;;25.09;100.00;96110.88;5028996;28;20084;-50
2022/08/27 07:57:09;;;;;;;10.85;8.85;;;;;;;25.60;100.00;96111.69;5028931;28;20085;-47
2022/08/27 07:59:38;;;;;;;10.63;8.52;;;;;;;24.90;100.00;96117.56;5024821;28;20072;-47
2022/08/27 08:02:07;;;;;;;12.20;9.23;;;;;;;25.18;100.00;96122.91;5028150;28;20526;-52
2022/08/27 08:04:36;;;;;;;10.80;8.95;;;;;;;24.62;100.00;96117.34;5027303;28;20065;-47
2022/08/27 08:07:04;;;;;;;10.38;9.27;;;;;;;25.04;100.00;96118.88;5019737;28;20536;-49
2022/08/27 08:09:33;;;;;;;13.68;9.38;;;;;;;24.82;100.00;96129.56;5015814;28;20074;-47
2022/08/27 08:12:01;;;;;;;11.95;9.80;;;;;;;25.03;100.00;96125.34;5027727;28;20073;-53
2022/08/27 08:14:31;;;;;;;14.07;9.40;;;;;;;25.88;100.00;96129.69;5028277;28;20084;-53
2022/08/27 08:17:00;;;;;;;10.50;9.13;;;;;;;25.44;100.00;96123.34;5028765;28;20103;-47
2022/08/27 08:19:31;;;;;;;12.00;9.68;;;;;;;26.04;100.00;96127.97;5020830;28;20605;-51
2022/08/27 08:22:00;;;;;;;11.30;9.52;;;;;;;26.16;100.00;96128.69;5022915;28;20091;-53
2022/08/27 08:24:33;;;;;;;12.13;9.70;;;;;;;25.98;100.00;96123.56;5028440;28;20457;-51
2022/08/27 08:27:02;;;;;;;11.85;9.50;;;;;;;26.27;100.00;96124.22;5024776;28;20085;-52
2022/08/27 08:29:35;;;;;;;13.27;10.00;;;;;;;26.44;100.00;96135.78;5021393;28;20097;-49
2022/08/27 08:32:04;;;;;;;13.20;9.82;;;;;;;26.49;100.00;96143.16;5027872;28;20149;-47
2022/08/27 08:34:35;;;;;;;12.95;9.90;;;;;;;26.12;100.00;96145.63;5028286;28;20085;-52
2022/08/27 08:37:05;;;;;;;10.75;8.75;;;;;;;27.09;100.00;96139.44;5028151;28;20582;-52
2022/08/27 08:39:35;;;;;;;10.63;9.05;;;;;;;26.95;100.00;96141.75;5026472;28;20085;-50
2022/08/27 08:42:05;;;;;;;9.77;8.57;;;;;;;27.19;100.00;96142.28;5024957;28;20077;-50
2022/08/27 08:44:35;;;;;;;10.77;8.38;;;;;;;27.44;100.00;96143.53;5024423;28;20084;-53
2022/08/27 08:47:08;;;;;;;9.55;7.95;;;;;;;26.62;100.00;96148.16;5028463;28;20085;-50
2022/08/27 08:49:47;;;;;;;9.05;7.68;;;;;;;27.24;100.00;96146.91;5028089;28;20540;-47
2022/08/27 08:52:27;;;;;;;12.02;7.80;;;;;;;25.83;100.00;96143.09;5027895;28;20495;-54
2022/08/27 08:55:09;;;;;;;9.75;7.10;;;;;;;26.66;100.00;96138.47;5023434;28;20088;-46
2022/08/27 08:57:42;;;;;;;8.65;7.22;;;;;;;26.78;100.00;96141.03;5025367;28;20096;-53
2022/08/27 09:00:12;;;;;;;9.88;7.00;;;;;;;27.60;100.00;96148.00;5027995;28;20089;-51
2022/08/27 09:02:49;;;;;;;11.52;7.50;;;;;;;26.99;100.00;96147.47;5022330;28;20461;-52
2022/08/27 09:05:19;;;;;;;8.18;6.32;;;;;;;28.07;100.00;96140.97;5020383;28;20068;-49
2022/08/27 09:08:01;;;;;;;7.68;6.00;;;;;;;28.17;100.00;96130.19;5027983;28;20081;-50
2022/08/27 09:10:55;;;;;;;9.88;7.00;;;;;;;28.37;100.00;96132.97;5016027;28;20083;-48
2022/08/27 09:13:25;;;;;;;8.82;6.93;;;;;;;28.39;100.00;96130.06;5026236;28;20049;-47
2022/08/27 09:15:56;;;;;;;6.70;5.57;;;;;;;28.82;100.00;96126.09;5025056;28;20558;-48
2022/08/27 09:18:25;;;;;;;7.32;5.97;;;;;;;29.54;100.00;96131.56;5027677;28;20082;-51
2022/08/27 09:21:02;;;;;;;7.55;6.15;;;;;;;29.02;100.00;96124.53;5027453;28;20104;-48
2022/08/27 09:23:44;;;;;;;7.60;6.13;;;;;;;29.38;100.00;96130.75;5029849;28;20096;-51
2022/08/27 09:26:20;;;;;;;8.07;6.40;;;;;;;29.22;100.00;96131.88;5026732;28;20088;-47
2022/08/27 09:31:39;;;;;;;9.88;7.38;;;;;;;28.93;100.00;96126.91;5029862;28;20085;-51
2022/08/27 09:34:08;;;;;;;9.05;7.80;;;;;;;28.42;100.00;96128.69;5031818;28;20093;-51
2022/08/27 09:36:50;;;;;;;9.00;7.47;;;;;;;27.51;100.00;96135.19;5031400;28;20084;-48
2022/08/27 09:39:18;;;;;;;9.55;7.13;;;;;;;28.21;100.00;96133.19;5021459;28;20077;-47
2022/08/27 09:41:48;;;;;;;10.77;7.53;;;;;;;28.56;100.00;96130.66;5029030;28;20053;-47
2022/08/27 09:44:19;;;;;;;7.70;6.90;;;;;;;27.70;100.00;96136.41;5026605;28;20165;-51
2022/08/27 09:46:55;;;;;;;7.45;5.57;;;;;;;28.89;100.00;96133.97;5027881;28;20543;-47
2022/08/27 09:49:24;;;;;;;6.70;5.97;;;;;;;29.16;100.00;96127.50;5028872;28;20475;-49
2022/08/27 09:51:54;;;;;;;7.78;6.38;;;;;;;29.50;100.00;96128.59;5028699;28;20081;-53
2022/08/27 09:54:38;;;;;;;9.43;6.80;;;;;;;29.59;100.00;96128.88;5027024;28;20081;-51
2022/08/27 09:57:07;;;;;;;7.18;6.38;;;;;;;28.48;100.00;96133.06;5027710;28;20092;-49
2022/08/27 09:59:37;;;;;;;8.07;6.40;;;;;;;28.11;100.00;96132.09;5027553;28;20058;-48
2022/08/27 10:02:13;;;;;;;8.15;6.28;;;;;;;29.54;100.00;96126.13;5026628;28;20484;-52
2022/08/27 10:04:43;;;;;;;7.03;6.25;;;;;;;29.20;100.00;96120.44;5029839;28;20480;-53
2022/08/27 10:07:26;;;;;;;9.10;6.10;;;;;;;28.01;100.00;96117.63;5023249;28;20092;-50
2022/08/27 10:10:00;;;;;;;7.35;5.88;;;;;;;29.46;100.00;96119.38;5029844;28;20107;-50
2022/08/27 10:12:34;;;;;;;6.45;5.85;;;;;;;29.12;100.00;96119.09;5029975;28;20073;-47
2022/08/27 10:15:04;;;;;;;9.18;6.32;;;;;;;29.84;100.00;96121.78;5031143;28;20099;-49
2022/08/27 10:17:41;;;;;;;8.48;5.93;;;;;;;29.45;100.00;96123.16;5030891;28;20089;-52
2022/08/27 10:20:17;;;;;;;7.88;5.68;;;;;;;29.94;100.00;96110.84;5028888;28;20750;-51
2022/08/27 10:23:11;;;;;;;9.13;6.30;;;;;;;29.86;100.00;96111.44;5028233;28;20090;-47
2022/08/27 10:25:47;;;;;;;12.60;5.97;;;;;;;30.17;100.00;96104.78;5030267;28;20108;-51
2022/08/27 10:28:26;;;;;;;9.40;6.65;;;;;;;29.36;100.00;96107.69;5030602;28;20405;-51
2022/08/27 10:31:11;;;;;;;7.60;6.45;;;;;;;29.23;100.00;96106.34;5030092;28;20100;-53
2022/08/27 10:33:46;;;;;;;7.80;6.70;;;;;;;28.56;100.00;96108.94;5026259;28;20089;-54
2022/08/27 10:36:20;;;;;;;9.13;6.65;;;;;;;28.78;100.00;96106.00;5026698;28;20082;-53
2022/08/27 10:39:01;;;;;;;7.55;6.72;;;;;;;29.24;100.00;96097.91;5030224;28;20092;-51
2022/08/27 10:41:33;;;;;;;7.57;6.55;;;;;;;29.50;100.00;96095.19;5029741;28;20077;-51
2022/08/27 10:44:19;;;;;;;7.50;6.13;;;;;;;30.58;100.00;96098.38;5027444;28;20084;-53
2022/08/27 10:46:59;;;;;;;7.90;6.43;;;;;;;30.01;100.00;96101.34;5030020;28;20061;-50
2022/08/27 10:49:31;;;;;;;;;;;;;;;30.56;100.00;96104.13;5029861;28;20081;-54
2022/08/27 10:52:05;;;;;;;8.38;6.75;;;;;;;29.95;100.00;96093.47;5030489;28;20071;-51
2022/08/27 10:54:39;;;;;;;9.77;6.38;;;;;;;29.97;100.00;96097.56;5027433;28;20514;-56
2022/08/27 10:57:13;;;;;;;7.40;6.10;;;;;;;30.19;100.00;96089.06;5028334;28;20081;-54
2022/08/27 11:00:06;;;;;;;7.43;5.32;;;;;;;29.08;100.00;96093.56;5010532;28;20077;-50
2022/08/27 11:02:41;;;;;;;9.15;6.35;;;;;;;29.81;100.00;96093.25;5021077;28;20069;-53
2022/08/27 11:05:17;;;;;;;7.00;5.38;;;;;;;30.31;100.00;96094.16;5007649;28;20077;-54
2022/08/27 11:07:47;;;;;;;8.07;5.68;;;;;;;29.74;100.00;96090.00;5007853;28;20155;-52
2022/08/27 11:10:23;;;;;;;6.28;5.05;;;;;;;30.46;100.00;96083.22;5006847;28;20077;-49
2022/08/27 11:12:54;;;;;;;7.22;4.78;;;;;;;30.41;100.00;96080.50;5011681;28;20089;-55
2022/08/27 11:15:25;;;;;;;6.55;4.43;;;;;;;29.76;100.00;96071.50;5005973;28;20085;-46
2022/08/27 11:17:58;;;;;;;7.30;4.55;;;;;;;29.78;100.00;96080.19;5010541;28;20131;-49
2022/08/27 11:20:29;;;;;;;6.18;4.38;;;;;;;30.41;100.00;96076.97;5014137;28;20076;-54
2022/08/27 11:23:03;;;;;;;7.72;4.22;;;;;;;30.42;100.00;96076.72;5005026;28;20124;-49
2022/08/27 11:25:39;;;;;;;7.75;4.50;;;;;;;30.81;100.00;96067.78;5009816;28;22057;-56
2022/08/27 11:28:08;;;;;;;6.28;4.78;;;;;;;30.90;100.00;96076.97;5010058;28;20085;-57
2022/08/27 11:30:44;;;;;;;5.28;4.60;;;;;;;30.22;100.00;96071.38;5006601;28;20141;-50
2022/08/27 11:33:16;;;;;;;6.82;5.03;;;;;;;30.08;100.00;96071.13;5013200;28;20073;-46
2022/08/27 11:35:56;;;;;;;5.82;4.85;;;;;;;30.02;100.00;96072.22;5030436;28;20426;-52
2022/08/27 11:38:29;;;;;;;;;;;;;;;29.97;100.00;96064.91;5029125;28;20090;-50
2022/08/27 11:41:10;;;;;;;7.53;4.85;;;;;;;30.10;100.00;96059.97;5024107;28;19964;-47
2022/08/27 11:43:38;;;;;;;5.43;4.53;;;;;;;29.70;100.00;96065.28;5027052;28;20658;-52
2022/08/27 11:46:08;;;;;;;9.40;4.50;;;;;;;28.79;100.00;96064.19;5023725;28;20085;-49
2022/08/27 11:48:40;;;;;;;5.75;4.55;;;;;;;29.08;100.00;96061.00;5022673;28;20477;-56